Time;durP1;ratioP1;P1;durP2;ratioP2;P2;SDS_P1;SDS_P2;PMS_P1;PMS_P2;Temp;Humidity;BMP_temperature;BMP_pressure;BME280_temperature;BME280_humidity;BME280_pressure;Samples;Min_cycle;Max_cycle;Signal;HPM_P1;HPM_P2
2022/03/08 00:01:10;;;;;;;66.75;36.65;;;;;;;;;;5094991;28;20032;-68
2022/03/08 00:03:36;;;;;;;68.68;35.47;;;;;;;;;;5094675;28;20099;-68
2022/03/08 00:06:03;;;;;;;74.53;38.45;;;;;;;;;;5094581;28;20123;-67
2022/03/08 00:08:29;;;;;;;73.45;39.05;;;;;;;;;;5094254;28;20024;-68
2022/03/08 00:10:55;;;;;;;64.05;36.63;;;;;;;;;;5076296;28;20473;-68
2022/03/08 00:13:21;;;;;;;67.45;37.55;;;;;;;;;;5094471;28;20078;-67
2022/03/08 00:15:49;;;;;;;67.63;37.97;;;;;;;;;;5076180;28;20020;-70
2022/03/08 00:18:17;;;;;;;67.28;34.88;;;;;;;;;;5094400;28;20028;-69
2022/03/08 00:20:43;;;;;;;73.45;37.78;;;;;;;;;;5094346;28;20415;-68
2022/03/08 00:23:09;;;;;;;66.85;37.20;;;;;;;;;;5076059;28;20077;-70
2022/03/08 00:25:35;;;;;;;66.95;36.30;;;;;;;;;;5093738;28;20028;-69
2022/03/08 00:28:02;;;;;;;63.38;34.80;;;;;;;;;;5094160;28;20032;-68
2022/03/08 00:30:29;;;;;;;68.57;36.25;;;;;;;;;;5094149;28;20028;-68
2022/03/08 00:32:55;;;;;;;67.38;37.10;;;;;;;;;;5093768;28;20384;-68
2022/03/08 00:35:22;;;;;;;69.97;37.67;;;;;;;;;;5094036;28;20167;-68
2022/03/08 00:37:49;;;;;;;69.00;37.70;;;;;;;;;;5075809;28;20031;-68
2022/03/08 00:40:16;;;;;;;70.93;39.25;;;;;;;;;;5075777;28;20119;-68
2022/03/08 00:42:42;;;;;;;75.68;38.72;;;;;;;;;;5093990;28;20024;-69
2022/03/08 00:45:18;;;;;;;73.63;39.05;;;;;;;;;;5093842;28;20081;-69
2022/03/08 00:47:45;;;;;;;76.85;38.67;;;;;;;;;;5075583;28;20036;-69
2022/03/08 00:50:15;;;;;;;68.15;37.78;;;;;;;;;;5075334;28;20028;-69
2022/03/08 00:52:42;;;;;;;76.03;38.57;;;;;;;;;;5093891;28;20024;-68
2022/03/08 00:55:09;;;;;;;70.68;37.42;;;;;;;;;;5093699;28;20027;-69
2022/03/08 00:57:35;;;;;;;73.35;37.97;;;;;;;;;;5093413;28;20441;-68
2022/03/08 01:00:01;;;;;;;63.70;35.75;;;;;;;;;;5075339;28;20103;-68
2022/03/08 01:02:27;;;;;;;72.32;38.45;;;;;;;;;;5075376;28;20035;-69
2022/03/08 01:04:53;;;;;;;68.18;36.33;;;;;;;;;;5093571;28;20024;-69
2022/03/08 01:07:19;;;;;;;65.47;37.05;;;;;;;;;;5093454;28;20085;-69
2022/03/08 01:09:46;;;;;;;67.75;36.75;;;;;;;;;;5093717;28;20127;-69
2022/03/08 01:12:12;;;;;;;70.57;38.05;;;;;;;;;;5093727;28;20526;-68
2022/03/08 01:14:38;;;;;;;69.10;36.92;;;;;;;;;;5075247;28;20024;-68
2022/03/08 01:17:05;;;;;;;74.07;38.85;;;;;;;;;;5093594;28;20043;-67
2022/03/08 01:19:31;;;;;;;72.10;38.22;;;;;;;;;;5093285;28;20035;-67
2022/03/08 01:21:57;;;;;;;78.97;39.90;;;;;;;;;;5093336;28;20140;-67
2022/03/08 01:24:23;;;;;;;87.00;43.95;;;;;;;;;;5093301;28;20024;-67
2022/03/08 01:26:50;;;;;;;78.63;39.13;;;;;;;;;;5074591;28;20446;-67
2022/03/08 01:29:16;;;;;;;73.63;40.00;;;;;;;;;;5075108;28;20032;-67
2022/03/08 01:31:42;;;;;;;77.57;41.45;;;;;;;;;;5093182;28;20115;-68
2022/03/08 01:34:08;;;;;;;71.65;39.92;;;;;;;;;;5074991;28;20020;-66
2022/03/08 01:36:35;;;;;;;81.20;41.92;;;;;;;;;;5093057;28;20506;-66
2022/03/08 01:39:01;;;;;;;70.30;38.50;;;;;;;;;;5075035;28;20585;-66
2022/03/08 01:41:28;;;;;;;89.68;41.38;;;;;;;;;;5075246;28;20462;-65
2022/03/08 01:43:54;;;;;;;71.25;39.60;;;;;;;;;;5092772;28;20024;-66
2022/03/08 01:46:20;;;;;;;75.65;40.53;;;;;;;;;;5093084;28;20025;-69
2022/03/08 01:48:46;;;;;;;70.07;38.97;;;;;;;;;;5092936;28;20035;-69
2022/03/08 01:51:14;;;;;;;72.28;39.50;;;;;;;;;;5093077;28;20555;-69
2022/03/08 01:53:40;;;;;;;72.40;38.95;;;;;;;;;;5092982;28;20024;-68
2022/03/08 01:56:10;;;;;;;73.38;38.60;;;;;;;;;;5092937;28;20028;-68
2022/03/08 01:58:37;;;;;;;78.22;39.70;;;;;;;;;;5092952;28;20052;-67
2022/03/08 02:01:04;;;;;;;77.55;39.92;;;;;;;;;;5074766;28;20024;-67
2022/03/08 02:03:30;;;;;;;70.05;39.30;;;;;;;;;;5092946;28;20056;-68
2022/03/08 02:05:56;;;;;;;79.18;40.88;;;;;;;;;;5074661;28;20024;-68
2022/03/08 02:08:23;;;;;;;78.17;40.60;;;;;;;;;;5092824;28;20115;-67
2022/03/08 02:10:51;;;;;;;81.88;41.10;;;;;;;;;;5092775;28;20044;-69
2022/03/08 02:13:17;;;;;;;84.18;42.40;;;;;;;;;;5092783;28;20059;-68
2022/03/08 02:15:47;;;;;;;81.00;42.30;;;;;;;;;;5074684;28;20029;-67
2022/03/08 02:18:13;;;;;;;81.80;42.45;;;;;;;;;;5092800;28;20113;-68
2022/03/08 02:20:40;;;;;;;79.20;41.60;;;;;;;;;;5092421;28;20032;-67
2022/03/08 02:23:06;;;;;;;80.95;41.50;;;;;;;;;;5092662;28;20020;-67
2022/03/08 02:25:32;;;;;;;77.47;40.65;;;;;;;;;;5092480;28;20020;-68
2022/03/08 02:27:58;;;;;;;77.70;40.45;;;;;;;;;;5074382;28;20028;-68
2022/03/08 02:30:25;;;;;;;77.00;39.42;;;;;;;;;;5092637;28;20030;-68
2022/03/08 02:32:52;;;;;;;73.15;39.10;;;;;;;;;;5077739;28;20034;-68
2022/03/08 02:35:20;;;;;;;73.65;38.20;;;;;;;;;;5096415;28;20024;-67
2022/03/08 02:37:48;;;;;;;71.97;38.30;;;;;;;;;;5096343;28;20462;-68
2022/03/08 02:40:15;;;;;;;88.70;37.92;;;;;;;;;;5096342;28;20038;-68
2022/03/08 02:42:42;;;;;;;73.13;37.85;;;;;;;;;;5096274;28;20180;-67
2022/03/08 02:45:08;;;;;;;78.35;38.55;;;;;;;;;;5096246;28;20060;-68
2022/03/08 02:47:35;;;;;;;73.45;37.40;;;;;;;;;;5077518;28;20028;-67
2022/03/08 02:50:01;;;;;;;68.88;36.97;;;;;;;;;;5077927;28;20036;-69
2022/03/08 02:52:27;;;;;;;70.63;38.03;;;;;;;;;;5096049;28;20028;-69
2022/03/08 02:54:53;;;;;;;69.22;36.38;;;;;;;;;;5096028;28;20057;-69
2022/03/08 02:57:19;;;;;;;72.78;36.90;;;;;;;;;;5096017;28;20115;-71
2022/03/08 02:59:46;;;;;;;68.68;36.47;;;;;;;;;;5095957;28;20024;-69
2022/03/08 03:02:12;;;;;;;65.03;36.65;;;;;;;;;;5095855;28;20020;-70
2022/03/08 03:04:38;;;;;;;68.80;36.55;;;;;;;;;;5095874;28;20032;-70
2022/03/08 03:07:04;;;;;;;68.40;36.83;;;;;;;;;;5096031;28;20024;-69
2022/03/08 03:09:30;;;;;;;74.85;36.50;;;;;;;;;;5095666;28;20034;-71
2022/03/08 03:11:57;;;;;;;76.07;39.30;;;;;;;;;;5077503;28;20361;-73
2022/03/08 03:14:23;;;;;;;69.45;37.45;;;;;;;;;;5077476;28;20024;-71
2022/03/08 03:16:49;;;;;;;72.13;38.17;;;;;;;;;;5077461;28;20478;-73
2022/03/08 03:19:15;;;;;;;77.55;38.80;;;;;;;;;;5077374;28;20031;-70
2022/03/08 03:21:41;;;;;;;76.30;38.40;;;;;;;;;;5095825;28;20034;-72
2022/03/08 03:24:07;;;;;;;69.63;36.47;;;;;;;;;;5077355;28;20138;-70
2022/03/08 03:26:34;;;;;;;65.50;34.30;;;;;;;;;;5095517;28;20181;-72
2022/03/08 03:29:00;;;;;;;66.35;35.85;;;;;;;;;;5095346;28;20032;-71
2022/03/08 03:31:26;;;;;;;67.47;35.55;;;;;;;;;;5095286;28;20032;-71
2022/03/08 03:33:52;;;;;;;68.20;36.58;;;;;;;;;;5095300;28;20016;-70
2022/03/08 03:36:19;;;;;;;66.10;33.75;;;;;;;;;;5076985;28;20483;-70
2022/03/08 03:38:45;;;;;;;63.58;33.55;;;;;;;;;;5094936;28;20043;-71
2022/03/08 03:41:11;;;;;;;60.47;33.97;;;;;;;;;;5095166;28;20548;-70
2022/03/08 03:43:37;;;;;;;63.33;33.22;;;;;;;;;;5094486;28;20095;-72
2022/03/08 03:46:05;;;;;;;63.67;34.97;;;;;;;;;;5095066;28;20103;-68
2022/03/08 03:48:32;;;;;;;69.13;36.05;;;;;;;;;;5094912;28;20049;-69
2022/03/08 03:50:58;;;;;;;62.72;33.15;;;;;;;;;;5094958;28;20036;-69
2022/03/08 03:53:24;;;;;;;59.05;33.03;;;;;;;;;;5076647;28;20032;-68
2022/03/08 03:55:50;;;;;;;65.75;34.08;;;;;;;;;;5094868;28;20097;-68
2022/03/08 03:58:17;;;;;;;59.38;31.52;;;;;;;;;;5094718;28;20032;-69
2022/03/08 04:00:43;;;;;;;62.72;31.10;;;;;;;;;;5094534;28;20476;-69
2022/03/08 04:03:09;;;;;;;63.45;33.17;;;;;;;;;;5094680;28;20145;-70
2022/03/08 04:05:35;;;;;;;58.47;31.45;;;;;;;;;;5094668;28;20077;-70
2022/03/08 04:08:02;;;;;;;56.25;31.38;;;;;;;;;;5076297;28;20036;-70
2022/03/08 04:10:28;;;;;;;50.20;27.85;;;;;;;;;;5076428;28;20547;-69
2022/03/08 04:12:54;;;;;;;53.97;27.73;;;;;;;;;;5094484;28;20020;-69
2022/03/08 04:15:21;;;;;;;53.38;29.52;;;;;;;;;;5076273;28;20020;-69
2022/03/08 04:17:47;;;;;;;51.45;28.17;;;;;;;;;;5076272;28;20035;-69
2022/03/08 04:20:13;;;;;;;50.38;27.02;;;;;;;;;;5094390;28;20115;-69
2022/03/08 04:22:39;;;;;;;49.38;27.08;;;;;;;;;;5076138;28;20404;-69
2022/03/08 04:25:06;;;;;;;56.08;29.42;;;;;;;;;;5076133;28;20414;-70
2022/03/08 04:27:33;;;;;;;54.38;29.52;;;;;;;;;;5093768;28;20047;-69
2022/03/08 04:29:59;;;;;;;51.00;28.30;;;;;;;;;;5094211;28;20122;-70
2022/03/08 04:32:25;;;;;;;51.30;29.63;;;;;;;;;;5075926;28;20034;-70
2022/03/08 04:34:51;;;;;;;46.63;26.33;;;;;;;;;;5075956;28;20122;-70
2022/03/08 04:37:17;;;;;;;46.58;26.42;;;;;;;;;;5075872;28;20070;-70
2022/03/08 04:39:43;;;;;;;49.25;28.13;;;;;;;;;;5094075;28;20036;-70
2022/03/08 04:42:10;;;;;;;49.97;25.58;;;;;;;;;;5094261;28;20032;-69
2022/03/08 04:44:38;;;;;;;49.40;27.75;;;;;;;;;;5075784;28;20055;-66
2022/03/08 04:47:04;;;;;;;51.40;28.88;;;;;;;;;;5093925;28;20060;-66
2022/03/08 04:49:30;;;;;;;53.92;30.58;;;;;;;;;;5093526;28;20028;-67
2022/03/08 04:51:56;;;;;;;55.25;31.20;;;;;;;;;;5093866;28;20502;-67
2022/03/08 04:54:23;;;;;;;54.63;30.00;;;;;;;;;;5092984;28;20077;-67
2022/03/08 04:56:49;;;;;;;58.65;31.75;;;;;;;;;;5093369;28;20103;-66
2022/03/08 04:59:15;;;;;;;63.60;32.65;;;;;;;;;;5093698;28;20035;-68
2022/03/08 05:01:41;;;;;;;62.40;33.38;;;;;;;;;;5093459;28;20032;-68
2022/03/08 05:04:07;;;;;;;62.25;33.38;;;;;;;;;;5093594;28;20024;-66
2022/03/08 05:06:34;;;;;;;68.88;35.92;;;;;;;;;;5093521;28;20034;-67
2022/03/08 05:09:00;;;;;;;67.78;35.70;;;;;;;;;;5093390;28;20031;-67
2022/03/08 05:11:26;;;;;;;68.68;36.30;;;;;;;;;;5093485;28;20109;-67
2022/03/08 05:13:52;;;;;;;64.50;33.42;;;;;;;;;;5093438;28;20020;-66
2022/03/08 05:16:18;;;;;;;68.20;35.13;;;;;;;;;;5093341;28;20024;-67
2022/03/08 05:18:44;;;;;;;68.93;34.97;;;;;;;;;;5075147;28;20096;-66
2022/03/08 05:21:11;;;;;;;64.18;34.55;;;;;;;;;;5093373;28;20070;-68
2022/03/08 05:23:37;;;;;;;66.95;34.88;;;;;;;;;;5093324;28;20028;-69
2022/03/08 05:26:04;;;;;;;69.10;34.43;;;;;;;;;;5079784;28;20040;-69
2022/03/08 05:28:31;;;;;;;65.53;32.78;;;;;;;;;;5054769;28;20041;-68
2022/03/08 05:30:57;;;;;;;64.97;34.78;;;;;;;;;;5072984;28;20090;-68
2022/03/08 05:33:23;;;;;;;63.42;34.08;;;;;;;;;;5072990;28;20021;-67
2022/03/08 05:35:50;;;;;;;67.72;33.60;;;;;;;;;;5073199;28;20024;-66
2022/03/08 05:38:17;;;;;;;64.97;35.85;;;;;;;;;;5072833;28;20028;-67
2022/03/08 05:40:43;;;;;;;63.28;32.45;;;;;;;;;;5072985;28;20031;-67
2022/03/08 05:43:09;;;;;;;64.68;34.03;;;;;;;;;;5072540;28;20427;-67
2022/03/08 05:45:35;;;;;;;64.80;34.55;;;;;;;;;;5072498;28;20529;-67
2022/03/08 05:48:01;;;;;;;65.97;34.75;;;;;;;;;;5072740;28;20037;-67
2022/03/08 05:50:28;;;;;;;67.80;36.40;;;;;;;;;;5072792;28;20485;-67
2022/03/08 05:52:54;;;;;;;72.03;37.25;;;;;;;;;;5072725;28;20036;-67
2022/03/08 05:55:20;;;;;;;67.82;36.88;;;;;;;;;;5072772;28;20025;-66
2022/03/08 05:57:46;;;;;;;73.22;37.80;;;;;;;;;;5072613;28;20029;-69
2022/03/08 06:00:13;;;;;;;83.78;37.15;;;;;;;;;;5054690;28;20028;-66
2022/03/08 06:02:40;;;;;;;71.95;36.20;;;;;;;;;;5072605;28;20025;-66
2022/03/08 06:05:07;;;;;;;76.00;41.42;;;;;;;;;;5072556;28;20020;-67
2022/03/08 06:07:33;;;;;;;73.93;37.97;;;;;;;;;;5075261;28;20021;-66
2022/03/08 06:09:59;;;;;;;78.72;38.70;;;;;;;;;;5075849;28;20044;-66
2022/03/08 06:12:26;;;;;;;79.73;40.03;;;;;;;;;;5055652;28;20044;-66
2022/03/08 06:14:52;;;;;;;80.85;42.63;;;;;;;;;;5058080;28;20376;-67
2022/03/08 06:17:18;;;;;;;84.30;43.72;;;;;;;;;;5057032;28;20029;-67
2022/03/08 06:19:44;;;;;;;84.20;44.28;;;;;;;;;;5073525;28;20024;-68
2022/03/08 06:22:10;;;;;;;80.57;43.42;;;;;;;;;;5075977;28;20073;-66
2022/03/08 06:24:37;;;;;;;83.22;43.28;;;;;;;;;;5054754;28;20039;-66
2022/03/08 06:27:03;;;;;;;88.85;43.55;;;;;;;;;;5054452;28;20041;-66
2022/03/08 06:29:29;;;;;;;87.40;46.50;;;;;;;;;;5055854;28;20029;-67
2022/03/08 06:31:55;;;;;;;89.03;46.33;;;;;;;;;;5054881;28;20469;-65
2022/03/08 06:34:22;;;;;;;84.43;43.72;;;;;;;;;;5057236;28;20025;-65
2022/03/08 06:36:48;;;;;;;93.10;44.40;;;;;;;;;;5057960;28;20028;-66
2022/03/08 06:39:14;;;;;;;89.45;44.97;;;;;;;;;;5075919;28;20465;-67
2022/03/08 06:41:41;;;;;;;87.20;44.70;;;;;;;;;;5076021;28;20030;-67
2022/03/08 06:44:08;;;;;;;94.65;48.45;;;;;;;;;;5075427;28;20020;-67
2022/03/08 06:46:34;;;;;;;93.57;46.90;;;;;;;;;;5075676;28;20070;-66
2022/03/08 06:49:00;;;;;;;94.53;48.35;;;;;;;;;;5075746;28;20032;-66
2022/03/08 06:51:26;;;;;;;91.75;45.90;;;;;;;;;;5075739;28;20544;-66
2022/03/08 06:53:52;;;;;;;96.43;46.33;;;;;;;;;;5075571;28;20028;-66
2022/03/08 06:56:19;;;;;;;96.60;47.92;;;;;;;;;;5057616;28;20463;-66
2022/03/08 06:58:45;;;;;;;91.25;47.03;;;;;;;;;;5075750;28;20112;-66
2022/03/08 07:01:11;;;;;;;92.97;48.70;;;;;;;;;;5057495;28;20124;-67
2022/03/08 07:03:37;;;;;;;99.68;49.28;;;;;;;;;;5057168;28;20060;-67
2022/03/08 07:06:05;;;;;;;87.93;46.60;;;;;;;;;;5074357;28;20020;-67
2022/03/08 07:08:31;;;;;;;92.38;47.40;;;;;;;;;;5075394;28;20373;-66
2022/03/08 07:10:58;;;;;;;94.03;45.90;;;;;;;;;;5057521;28;20025;-65
2022/03/08 07:13:24;;;;;;;91.13;47.25;;;;;;;;;;5057321;28;20029;-69
2022/03/08 07:15:50;;;;;;;86.00;45.05;;;;;;;;;;5075362;28;20024;-66
2022/03/08 07:18:16;;;;;;;96.72;49.58;;;;;;;;;;5056243;28;20166;-66
2022/03/08 07:20:43;;;;;;;92.45;45.63;;;;;;;;;;5075264;28;20025;-66
2022/03/08 07:23:09;;;;;;;94.32;50.38;;;;;;;;;;5075123;28;20027;-66
2022/03/08 07:25:35;;;;;;;85.75;45.50;;;;;;;;;;5056615;28;20520;-66
2022/03/08 07:28:01;;;;;;;96.28;47.72;;;;;;;;;;5074609;28;20393;-66
2022/03/08 07:30:27;;;;;;;89.60;47.42;;;;;;;;;;5075294;28;20032;-67
2022/03/08 07:32:53;;;;;;;82.45;44.88;;;;;;;;;;5074651;28;20115;-66
2022/03/08 07:35:20;;;;;;;100.20;48.40;;;;;;;;;;5074908;28;20060;-66
2022/03/08 07:37:46;;;;;;;95.70;49.40;;;;;;;;;;5074852;28;20025;-66
2022/03/08 07:40:12;;;;;;;85.38;44.45;;;;;;;;;;5074827;28;20055;-66
2022/03/08 07:42:38;;;;;;;93.82;46.20;;;;;;;;;;5056736;28;20032;-66
2022/03/08 07:45:05;;;;;;;89.70;45.28;;;;;;;;;;5074772;28;20082;-66
2022/03/08 07:47:31;;;;;;;85.00;45.10;;;;;;;;;;5056688;28;20033;-66
2022/03/08 07:49:57;;;;;;;99.85;48.90;;;;;;;;;;5056251;28;20039;-66
2022/03/08 07:52:23;;;;;;;96.18;50.78;;;;;;;;;;5074618;28;20035;-65
2022/03/08 07:54:49;;;;;;;94.63;45.30;;;;;;;;;;5074582;28;20040;-67
2022/03/08 07:57:15;;;;;;;85.97;45.17;;;;;;;;;;5056445;28;20024;-65
2022/03/08 07:59:42;;;;;;;92.55;44.42;;;;;;;;;;5074237;28;20025;-67
2022/03/08 08:02:08;;;;;;;88.95;43.03;;;;;;;;;;5074399;28;20052;-67
2022/03/08 08:04:34;;;;;;;88.18;44.00;;;;;;;;;;5056323;28;20028;-67
2022/03/08 08:07:00;;;;;;;89.20;41.75;;;;;;;;;;5073539;28;20035;-67
2022/03/08 08:09:26;;;;;;;89.68;43.95;;;;;;;;;;5072674;28;20240;-69
2022/03/08 08:11:53;;;;;;;84.13;42.13;;;;;;;;;;5073958;28;20369;-68
2022/03/08 08:14:19;;;;;;;81.25;42.08;;;;;;;;;;5073844;28;20021;-67
2022/03/08 08:16:45;;;;;;;89.93;42.10;;;;;;;;;;5053682;28;20082;-67
2022/03/08 08:19:12;;;;;;;82.43;41.08;;;;;;;;;;5073718;28;20032;-68
2022/03/08 08:21:38;;;;;;;83.38;40.30;;;;;;;;;;5074086;28;20024;-69
2022/03/08 08:24:05;;;;;;;86.95;44.78;;;;;;;;;;5074122;28;20035;-72
2022/03/08 08:26:31;;;;;;;77.75;41.03;;;;;;;;;;5055698;28;20083;-70
2022/03/08 08:28:57;;;;;;;77.18;39.00;;;;;;;;;;5073508;28;20032;-68
2022/03/08 08:31:24;;;;;;;73.38;37.50;;;;;;;;;;5074013;28;20036;-69
2022/03/08 08:33:51;;;;;;;77.63;40.97;;;;;;;;;;5073488;28;20021;-72
2022/03/08 08:36:17;;;;;;;74.85;39.00;;;;;;;;;;5073253;28;20060;-71
2022/03/08 08:38:43;;;;;;;76.03;40.17;;;;;;;;;;5055527;28;20358;-69
2022/03/08 08:41:10;;;;;;;82.82;39.50;;;;;;;;;;5073774;28;20029;-70
2022/03/08 08:43:36;;;;;;;72.15;38.92;;;;;;;;;;5073298;28;20073;-69
2022/03/08 08:46:02;;;;;;;71.38;37.83;;;;;;;;;;5073430;28;20171;-69
2022/03/08 08:48:28;;;;;;;81.72;44.25;;;;;;;;;;5055171;28;20086;-70
2022/03/08 08:50:54;;;;;;;70.80;40.72;;;;;;;;;;5073255;28;20039;-69
2022/03/08 08:53:22;;;;;;;65.72;35.85;;;;;;;;;;5055404;28;20119;-67
2022/03/08 08:55:48;;;;;;;74.65;40.30;;;;;;;;;;5073138;28;20078;-67
2022/03/08 08:58:14;;;;;;;74.00;38.53;;;;;;;;;;5073221;28;20039;-66
2022/03/08 09:00:41;;;;;;;66.90;37.30;;;;;;;;;;5072689;28;20481;-67
2022/03/08 09:03:14;;;;;;;77.65;43.50;;;;;;;;;;5073228;28;20156;-70
2022/03/08 09:05:42;;;;;;;109.20;55.83;;;;;;;;;;5054987;28;20021;-68
2022/03/08 09:08:09;;;;;;;164.68;81.28;;;;;;;;;;5072379;28;20631;-69
2022/03/08 09:10:35;;;;;;;64.53;35.60;;;;;;;;;;5071665;28;20055;-71
2022/03/08 09:13:01;;;;;;;77.15;43.50;;;;;;;;;;5054790;28;20021;-67
2022/03/08 09:15:27;;;;;;;63.00;35.97;;;;;;;;;;5072721;28;20035;-69
2022/03/08 09:17:53;;;;;;;68.13;35.75;;;;;;;;;;5073209;28;20103;-69
2022/03/08 09:20:20;;;;;;;64.60;35.17;;;;;;;;;;5050973;28;20036;-72
2022/03/08 09:22:46;;;;;;;55.70;32.95;;;;;;;;;;5072522;28;20032;-68
2022/03/08 09:25:12;;;;;;;61.13;32.95;;;;;;;;;;5072558;28;20024;-67
2022/03/08 09:27:38;;;;;;;61.80;33.53;;;;;;;;;;5072808;28;20064;-69
2022/03/08 09:30:05;;;;;;;62.45;34.85;;;;;;;;;;5054686;28;20040;-67
2022/03/08 09:32:31;;;;;;;68.05;34.75;;;;;;;;;;5072931;28;20025;-68
2022/03/08 09:34:58;;;;;;;62.55;32.95;;;;;;;;;;5054721;28;20031;-67
2022/03/08 09:37:24;;;;;;;57.72;33.72;;;;;;;;;;5072587;28;20054;-68
2022/03/08 09:39:50;;;;;;;64.05;34.00;;;;;;;;;;5054602;28;20028;-66
2022/03/08 09:42:17;;;;;;;71.05;36.67;;;;;;;;;;5072076;28;20112;-68
2022/03/08 09:44:43;;;;;;;61.65;32.83;;;;;;;;;;5072689;28;20484;-68
2022/03/08 09:47:09;;;;;;;58.92;35.20;;;;;;;;;;5072685;28;20110;-69
2022/03/08 09:49:36;;;;;;;63.25;37.28;;;;;;;;;;5054402;28;20035;-68
2022/03/08 09:52:02;;;;;;;47.47;27.83;;;;;;;;;;5072878;28;20036;-68
2022/03/08 09:54:28;;;;;;;54.17;31.40;;;;;;;;;;5072709;28;20052;-68
2022/03/08 09:56:54;;;;;;;62.40;35.15;;;;;;;;;;5054470;28;20240;-67
2022/03/08 09:59:20;;;;;;;64.85;36.45;;;7.10;93.30;;;;;;5072266;28;20027;-67
2022/03/08 10:01:47;;;;;;;76.10;40.47;;;7.00;93.20;;;;;;5054364;28;20028;-64
2022/03/08 10:04:17;;;;;;;86.30;47.90;;;7.10;92.20;;;;;;5072410;28;20024;-68
2022/03/08 10:06:46;;;;;;;68.88;41.97;;;7.20;93.10;;;;;;5072267;28;20028;-67
2022/03/08 10:09:17;;;;;;;45.00;27.35;;;7.50;92.20;;;;;;5053937;28;20032;-67
2022/03/08 10:11:44;;;;;;;41.22;24.60;;;7.70;91.30;;;;;;5072424;28;20115;-68
2022/03/08 10:14:26;;;;;;;46.08;27.90;;;7.70;90.00;;;;;;5054545;28;20426;-67
2022/03/08 10:16:52;;;;;;;44.03;28.70;;;7.80;90.90;;;;;;5072185;28;20025;-66
2022/03/08 10:19:18;;;;;;;42.97;24.92;;;7.60;89.80;;;;;;5054208;28;20166;-67
2022/03/08 10:21:47;;;;;;;48.08;26.40;;;7.30;89.90;;;;;;5071994;28;20027;-66
2022/03/08 10:24:20;;;;;;;44.67;26.15;;;7.20;89.10;;;;;;5054236;28;20031;-67
2022/03/08 10:26:50;;;;;;;47.22;27.27;;;7.30;90.80;;;;;;5071696;28;20102;-66
2022/03/08 10:29:30;;;;;;;43.58;26.08;;;7.60;89.70;;;;;;5071584;28;20465;-66
2022/03/08 10:32:18;;;;;;;71.43;39.92;;;7.40;87.90;;;;;;5072278;28;20047;-67
2022/03/08 10:34:46;;;;;;;47.92;28.00;;;7.10;89.00;;;;;;5053850;28;20493;-66
2022/03/08 10:37:17;;;;;;;51.40;29.40;;;7.10;90.90;;;;;;5072027;28;20024;-68
2022/03/08 10:39:51;;;;;;;106.57;57.63;;;7.00;90.60;;;;;;5072187;28;20033;-66
2022/03/08 10:42:22;;;;;;;71.35;39.20;;;7.00;90.40;;;;;;5072111;28;20458;-69
2022/03/08 10:44:48;;;;;;;146.85;79.88;;;7.20;90.60;;;;;;5071987;28;20082;-67
2022/03/08 10:47:15;;;;;;;51.55;28.10;;;7.00;91.20;;;;;;5072064;28;20040;-71
2022/03/08 10:49:57;;;;;;;54.10;30.45;;;6.80;91.00;;;;;;5071636;28;20064;-70
2022/03/08 10:52:27;;;;;;;;;;;6.70;90.90;;;;;;5072265;28;20029;-69
2022/03/08 10:54:54;;;;;;;42.08;23.75;;;7.00;91.50;;;;;;5057073;28;19912;-69
2022/03/08 10:57:20;;;;;;;41.95;24.60;;;7.50;89.80;;;;;;5075213;28;20046;-68
2022/03/08 10:59:56;;;;;;;40.45;24.40;;;7.90;86.90;;;;;;5075223;28;20039;-65
2022/03/08 11:02:23;;;;;;;48.63;25.00;;;8.40;87.40;;;;;;5075318;28;20025;-67
2022/03/08 11:05:10;;;;;;;40.47;23.75;;;7.80;86.20;;;;;;5075168;28;20066;-66
2022/03/08 11:07:37;;;;;;;45.67;25.17;;;8.00;87.40;;;;;;5074577;28;20119;-67
2022/03/08 11:10:05;;;;;;;48.78;27.60;;;7.60;88.50;;;;;;5057087;28;20445;-69
2022/03/08 11:12:31;;;;;;;36.95;22.90;;;7.40;89.60;;;;;;5075524;28;20037;-67
2022/03/08 11:14:57;;;;;;;43.90;27.30;;;7.00;86.20;;;;;;5056627;28;20033;-66
2022/03/08 11:17:26;;;;;;;44.55;27.38;;;7.10;89.20;;;;;;5056990;28;20050;-66
2022/03/08 11:19:52;;;;;;;37.15;21.73;;;;;;;;;;5075035;28;20120;-68
2022/03/08 11:22:19;;;;;;;46.80;25.95;;;8.00;85.90;;;;;;5074865;28;20111;-68
2022/03/08 11:24:49;;;;;;;33.53;20.95;;;7.60;85.00;;;;;;5057072;28;20020;-67
2022/03/08 11:27:15;;;;;;;44.25;23.13;;;7.50;87.10;;;;;;5075143;28;20044;-66
2022/03/08 11:29:42;;;;;;;31.90;18.42;;;7.60;86.10;;;;;;5056781;28;20115;-64
2022/03/08 11:32:16;;;;;;;32.10;19.17;;;7.50;83.50;;;;;;5075005;28;20036;-66
2022/03/08 11:34:47;;;;;;;33.60;18.90;;;7.60;83.40;;;;;;5056470;28;20024;-68
2022/03/08 11:37:20;;;;;;;41.88;24.55;;;8.70;82.90;;;;;;5057002;28;20488;-67
2022/03/08 11:40:04;;;;;;;20.80;13.13;;;9.00;79.70;;;;;;5075088;28;20473;-64
2022/03/08 11:42:31;;;;;;;20.80;12.35;;;10.80;99.90;;;;;;5074552;28;20035;-69
2022/03/08 11:45:09;;;;;;;310.55;144.82;;;11.10;72.80;;;;;;5056677;28;20048;-66
2022/03/08 11:47:40;;;;;;;22.15;13.02;;;12.10;67.90;;;;;;5074536;28;20059;-65
2022/03/08 11:50:17;;;;;;;26.50;14.35;;;11.10;67.40;;;;;;5074525;28;20072;-67
2022/03/08 11:52:44;;;;;;;26.10;15.68;;;10.50;70.40;;;;;;5074618;28;20123;-66
2022/03/08 11:55:11;;;;;;;21.20;11.77;;;;;;;;;;5074925;28;20028;-66
2022/03/08 11:57:50;;;;;;;19.00;12.85;;;;;;;;;;5074424;28;20086;-65
2022/03/08 12:00:33;;;;;;;20.50;12.07;;;;;;;;;;5056415;28;20496;-65
2022/03/08 12:03:02;;;;;;;23.20;11.32;;;;;;;;;;5056463;28;20159;-66
2022/03/08 12:05:47;;;;;;;20.30;11.50;;;;;;;;;;5055869;28;20024;-68
2022/03/08 12:08:23;;;;;;;17.73;9.95;;;;;;;;;;5056215;28;20385;-66
2022/03/08 12:10:51;;;;;;;14.07;9.77;;;;;;;;;;5074389;28;20089;-71
2022/03/08 12:13:17;;;;;;;14.50;10.23;;;;;;;;;;5056117;28;20021;-66
2022/03/08 12:16:02;;;;;;;14.25;7.97;;;;;;;;;;5074112;28;20025;-65
2022/03/08 12:18:48;;;;;;;13.23;9.30;;;;;;;;;;5073930;28;20108;-66
2022/03/08 12:21:18;;;;;;;22.45;12.43;;;;;;;;;;5056795;28;20333;-67
2022/03/08 12:24:02;;;;;;;16.58;10.38;;;;;;;;;;5074060;28;20055;-68
2022/03/08 12:26:36;;;;;;;15.43;9.43;;;;;;;;;;5073698;28;20055;-67
2022/03/08 12:29:07;;;;;;;53.33;26.88;;;;;;;;;;5073642;28;20044;-67
2022/03/08 12:31:34;;;;;;;32.78;19.30;;;;;;;;;;5073715;28;20033;-67
2022/03/08 12:34:01;;;;;;;14.75;9.05;;;;;;;;;;5055691;28;20032;-67
2022/03/08 12:36:28;;;;;;;18.80;11.93;;;;;;;;;;5073711;28;20113;-66
2022/03/08 12:38:54;;;;;;;19.20;13.95;;;;;;;;;;5073489;28;20101;-66
2022/03/08 12:41:27;;;;;;;20.23;10.32;;;;;;;;;;5055469;28;20469;-64
2022/03/08 12:44:00;;;;;;;15.13;9.98;;;;;;;;;;5054317;28;20028;-64
2022/03/08 12:46:27;;;;;;;17.83;10.55;;;;;;;;;;5068598;28;20020;-77
2022/03/08 12:48:53;;;;;;;15.70;11.38;;;;;;;;;;5055298;28;20036;-65
2022/03/08 12:51:23;;;;;;;13.63;9.52;;;;;;;;;;5073059;28;20037;-67
2022/03/08 12:53:57;;;;;;;16.80;9.13;;;;;;;;;;5071599;28;20030;-65
2022/03/08 12:56:25;;;;;;;17.65;10.40;;;;;;;;;;5073119;28;20064;-67
2022/03/08 12:58:51;;;;;;;25.10;13.77;;;;;;;;;;5073349;28;20038;-65
2022/03/08 13:01:17;;;;;;;23.25;14.00;;;;;;;;;;5072334;28;20024;-65
2022/03/08 13:03:45;;;;;;;23.48;13.73;;;;;;;;;;5054904;28;20037;-67
2022/03/08 13:06:11;;;;;;;25.35;13.93;;;;;;;;;;5072405;28;20473;-65
2022/03/08 13:08:39;;;;;;;23.35;14.18;;;;;;;;;;5072443;28;20028;-65
2022/03/08 13:11:08;;;;;;;22.17;13.50;;;;;;;;;;5054809;28;20039;-64
2022/03/08 13:13:37;;;;;;;25.00;15.32;;;;;;;;;;5072773;28;20029;-64
2022/03/08 13:16:04;;;;;;;30.02;16.50;;;;;;;;;;5072038;28;20021;-68
2022/03/08 13:18:35;;;;;;;22.10;14.35;;;;;;;;;;5073065;28;20108;-67
2022/03/08 13:21:01;;;;;;;18.70;12.10;;;;;;;;;;5072969;28;20416;-66
2022/03/08 13:23:28;;;;;;;20.73;11.50;;;;;;;;;;5055071;28;20021;-66
2022/03/08 13:25:56;;;;;;;17.73;8.85;;;;;;;;;;5054410;28;20048;-65
2022/03/08 13:28:23;;;;;;;21.17;14.05;;;;;;;;;;5072633;28;20028;-65
2022/03/08 13:30:56;;;;;;;18.63;13.30;;;;;;;;;;5072689;28;20024;-69
2022/03/08 13:33:25;;;;;;;43.78;25.52;;;;;;;;;;5054524;28;20029;-64
2022/03/08 13:36:01;;;;;;;15.48;9.57;;;;;;;;;;5072444;28;20036;-64
2022/03/08 13:38:34;;;;;;;16.00;10.07;;;;;;;;;;5054508;28;20029;-66
2022/03/08 13:41:04;;;;;;;22.45;13.00;;;;;;;;;;5054250;28;20053;-66
2022/03/08 13:43:32;;;;;;;13.63;9.77;;;;;;;;;;5072567;28;20146;-65
2022/03/08 13:46:02;;;;;;;25.48;17.92;;;;;;;;;;5072521;28;20058;-66
2022/03/08 13:48:29;;;;;;;37.40;24.05;;;;;;;;;;5054483;28;20032;-67
2022/03/08 13:50:56;;;;;;;29.52;18.17;;;;;;;;;;5072032;28;20036;-66
2022/03/08 13:53:23;;;;;;;12.13;7.40;;;;;;;;;;5053697;28;20028;-66
2022/03/08 13:55:55;;;;;;;11.13;6.53;;;;;;;;;;5071933;28;20103;-66
2022/03/08 13:58:22;;;;;;;10.30;7.20;;;10.70;75.20;;;;;;5069479;28;20040;-67
2022/03/08 14:00:49;;;;;;;14.15;8.38;;;;;;;;;;5072159;28;20074;-67
2022/03/08 14:03:16;;;;;;;16.13;9.73;;;;;;;;;;5072623;28;20444;-68